sensor_id;sensor_type;location;lat;lon;timestamp;P1;durP1;ratioP1;P2;durP2;ratioP2
3443;SDS011;1736;52.068;6.968;2023-03-31T00:01:40;9.97;;;2.33;;
3443;SDS011;1736;52.068;6.968;2023-03-31T00:04:07;5.07;;;3.20;;
3443;SDS011;1736;52.068;6.968;2023-03-31T00:06:34;9.30;;;2.67;;
3443;SDS011;1736;52.068;6.968;2023-03-31T00:09:03;3.00;;;2.20;;
3443;SDS011;1736;52.068;6.968;2023-03-31T00:11:30;7.93;;;2.63;;
3443;SDS011;1736;52.068;6.968;2023-03-31T00:13:57;7.80;;;2.20;;
3443;SDS011;1736;52.068;6.968;2023-03-31T00:16:24;3.10;;;2.10;;
3443;SDS011;1736;52.068;6.968;2023-03-31T00:18:51;5.50;;;2.57;;
3443;SDS011;1736;52.068;6.968;2023-03-31T00:21:18;11.27;;;3.13;;
3443;SDS011;1736;52.068;6.968;2023-03-31T00:23:49;8.00;;;2.60;;
3443;SDS011;1736;52.068;6.968;2023-03-31T00:26:16;5.30;;;3.30;;
3443;SDS011;1736;52.068;6.968;2023-03-31T00:28:43;5.10;;;3.30;;
3443;SDS011;1736;52.068;6.968;2023-03-31T00:31:11;8.00;;;2.70;;
3443;SDS011;1736;52.068;6.968;2023-03-31T00:33:37;3.37;;;2.50;;
3443;SDS011;1736;52.068;6.968;2023-03-31T00:36:04;4.80;;;2.80;;
3443;SDS011;1736;52.068;6.968;2023-03-31T00:38:31;9.13;;;3.27;;
3443;SDS011;1736;52.068;6.968;2023-03-31T00:40:57;7.83;;;3.03;;
3443;SDS011;1736;52.068;6.968;2023-03-31T00:43:28;6.40;;;3.00;;
3443;SDS011;1736;52.068;6.968;2023-03-31T00:48:46;5.80;;;3.00;;
3443;SDS011;1736;52.068;6.968;2023-03-31T00:51:15;6.20;;;2.90;;
3443;SDS011;1736;52.068;6.968;2023-03-31T00:53:44;5.30;;;2.50;;
3443;SDS011;1736;52.068;6.968;2023-03-31T00:56:13;6.23;;;3.80;;
3443;SDS011;1736;52.068;6.968;2023-03-31T00:58:42;4.10;;;3.10;;
3443;SDS011;1736;52.068;6.968;2023-03-31T01:01:10;3.30;;;2.53;;
3443;SDS011;1736;52.068;6.968;2023-03-31T01:03:42;6.00;;;2.63;;
3443;SDS011;1736;52.068;6.968;2023-03-31T01:06:10;2.60;;;2.40;;
3443;SDS011;1736;52.068;6.968;2023-03-31T01:08:39;5.73;;;2.67;;
3443;SDS011;1736;52.068;6.968;2023-03-31T01:11:08;5.40;;;2.40;;
3443;SDS011;1736;52.068;6.968;2023-03-31T01:13:37;8.70;;;3.47;;
3443;SDS011;1736;52.068;6.968;2023-03-31T01:16:06;6.50;;;2.33;;
3443;SDS011;1736;52.068;6.968;2023-03-31T01:18:32;6.70;;;2.40;;
3443;SDS011;1736;52.068;6.968;2023-03-31T01:21:25;7.03;;;2.50;;
3443;SDS011;1736;52.068;6.968;2023-03-31T01:30:32;6.43;;;2.90;;
3443;SDS011;1736;52.068;6.968;2023-03-31T01:42:51;7.00;;;2.90;;
3443;SDS011;1736;52.068;6.968;2023-03-31T01:45:25;7.77;;;2.80;;
3443;SDS011;1736;52.068;6.968;2023-03-31T01:48:00;6.30;;;2.67;;
3443;SDS011;1736;52.068;6.968;2023-03-31T01:50:34;7.00;;;2.60;;
3443;SDS011;1736;52.068;6.968;2023-03-31T01:53:09;6.57;;;2.23;;
3443;SDS011;1736;52.068;6.968;2023-03-31T01:55:45;5.90;;;2.73;;
3443;SDS011;1736;52.068;6.968;2023-03-31T01:58:19;5.50;;;3.27;;
3443;SDS011;1736;52.068;6.968;2023-03-31T02:00:50;3.40;;;2.20;;
3443;SDS011;1736;52.068;6.968;2023-03-31T02:03:27;9.30;;;2.83;;
3443;SDS011;1736;52.068;6.968;2023-03-31T02:05:59;13.40;;;3.27;;
3443;SDS011;1736;52.068;6.968;2023-03-31T02:08:33;3.30;;;2.20;;
3443;SDS011;1736;52.068;6.968;2023-03-31T02:11:05;4.27;;;2.30;;
3443;SDS011;1736;52.068;6.968;2023-03-31T02:13:32;9.90;;;2.70;;
3443;SDS011;1736;52.068;6.968;2023-03-31T02:16:02;9.07;;;3.10;;
3443;SDS011;1736;52.068;6.968;2023-03-31T02:18:32;5.97;;;3.20;;
3443;SDS011;1736;52.068;6.968;2023-03-31T02:21:02;7.00;;;2.80;;
3443;SDS011;1736;52.068;6.968;2023-03-31T02:23:31;4.80;;;2.60;;
3443;SDS011;1736;52.068;6.968;2023-03-31T02:26:00;9.57;;;3.50;;
3443;SDS011;1736;52.068;6.968;2023-03-31T02:28:31;5.80;;;2.77;;
3443;SDS011;1736;52.068;6.968;2023-03-31T02:31:03;4.80;;;3.23;;
3443;SDS011;1736;52.068;6.968;2023-03-31T02:33:35;4.00;;;2.57;;
3443;SDS011;1736;52.068;6.968;2023-03-31T02:36:02;6.27;;;3.10;;
3443;SDS011;1736;52.068;6.968;2023-03-31T02:38:29;17.27;;;3.70;;
3443;SDS011;1736;52.068;6.968;2023-03-31T02:41:00;8.20;;;4.57;;
3443;SDS011;1736;52.068;6.968;2023-03-31T02:43:27;4.17;;;2.90;;
3443;SDS011;1736;52.068;6.968;2023-03-31T02:45:55;10.40;;;2.87;;
3443;SDS011;1736;52.068;6.968;2023-03-31T02:48:22;8.53;;;3.60;;
3443;SDS011;1736;52.068;6.968;2023-03-31T02:50:59;9.40;;;4.10;;
3443;SDS011;1736;52.068;6.968;2023-03-31T02:53:38;7.10;;;3.17;;
3443;SDS011;1736;52.068;6.968;2023-03-31T02:56:22;7.80;;;2.67;;
3443;SDS011;1736;52.068;6.968;2023-03-31T02:59:05;8.23;;;3.07;;
3443;SDS011;1736;52.068;6.968;2023-03-31T03:01:48;4.57;;;2.90;;
3443;SDS011;1736;52.068;6.968;2023-03-31T03:04:33;6.30;;;3.63;;
3443;SDS011;1736;52.068;6.968;2023-03-31T03:07:11;5.90;;;3.63;;
3443;SDS011;1736;52.068;6.968;2023-03-31T03:09:49;8.60;;;3.77;;
3443;SDS011;1736;52.068;6.968;2023-03-31T03:12:23;8.17;;;4.13;;
3443;SDS011;1736;52.068;6.968;2023-03-31T03:14:52;10.87;;;3.93;;
3443;SDS011;1736;52.068;6.968;2023-03-31T03:17:29;12.17;;;4.53;;
3443;SDS011;1736;52.068;6.968;2023-03-31T03:20:00;6.43;;;3.77;;
3443;SDS011;1736;52.068;6.968;2023-03-31T03:22:32;6.87;;;3.43;;
3443;SDS011;1736;52.068;6.968;2023-03-31T03:24:58;5.67;;;3.27;;
3443;SDS011;1736;52.068;6.968;2023-03-31T03:27:25;6.17;;;3.17;;
3443;SDS011;1736;52.068;6.968;2023-03-31T03:29:52;10.87;;;3.30;;
3443;SDS011;1736;52.068;6.968;2023-03-31T03:32:19;7.80;;;3.10;;
3443;SDS011;1736;52.068;6.968;2023-03-31T03:34:46;4.50;;;2.67;;
3443;SDS011;1736;52.068;6.968;2023-03-31T03:37:13;6.93;;;3.63;;
3443;SDS011;1736;52.068;6.968;2023-03-31T03:39:40;8.90;;;3.40;;
3443;SDS011;1736;52.068;6.968;2023-03-31T03:42:06;10.00;;;3.00;;
3443;SDS011;1736;52.068;6.968;2023-03-31T03:44:33;5.17;;;2.63;;
3443;SDS011;1736;52.068;6.968;2023-03-31T03:46:59;9.93;;;3.10;;
3443;SDS011;1736;52.068;6.968;2023-03-31T03:49:25;10.20;;;3.67;;
3443;SDS011;1736;52.068;6.968;2023-03-31T03:51:53;6.50;;;3.23;;
3443;SDS011;1736;52.068;6.968;2023-03-31T03:54:20;7.00;;;2.60;;
3443;SDS011;1736;52.068;6.968;2023-03-31T03:56:46;7.30;;;3.20;;
3443;SDS011;1736;52.068;6.968;2023-03-31T03:59:13;12.43;;;3.77;;
3443;SDS011;1736;52.068;6.968;2023-03-31T04:01:40;4.73;;;3.10;;
3443;SDS011;1736;52.068;6.968;2023-03-31T04:04:06;9.03;;;3.93;;
3443;SDS011;1736;52.068;6.968;2023-03-31T04:06:33;7.30;;;3.87;;
3443;SDS011;1736;52.068;6.968;2023-03-31T04:09:01;12.87;;;3.27;;
3443;SDS011;1736;52.068;6.968;2023-03-31T04:11:28;14.77;;;4.00;;
3443;SDS011;1736;52.068;6.968;2023-03-31T04:13:55;14.73;;;4.47;;
3443;SDS011;1736;52.068;6.968;2023-03-31T04:16:22;10.60;;;3.40;;
3443;SDS011;1736;52.068;6.968;2023-03-31T04:18:49;10.87;;;4.23;;
3443;SDS011;1736;52.068;6.968;2023-03-31T04:21:20;6.87;;;4.20;;
3443;SDS011;1736;52.068;6.968;2023-03-31T04:23:48;11.20;;;4.50;;
3443;SDS011;1736;52.068;6.968;2023-03-31T04:26:24;8.80;;;4.80;;
3443;SDS011;1736;52.068;6.968;2023-03-31T04:28:55;7.17;;;4.50;;
3443;SDS011;1736;52.068;6.968;2023-03-31T04:31:24;10.30;;;4.17;;
3443;SDS011;1736;52.068;6.968;2023-03-31T04:33:54;9.07;;;4.00;;
3443;SDS011;1736;52.068;6.968;2023-03-31T04:36:25;19.90;;;5.23;;
3443;SDS011;1736;52.068;6.968;2023-03-31T04:38:53;10.73;;;4.30;;
3443;SDS011;1736;52.068;6.968;2023-03-31T04:41:20;15.00;;;4.93;;
3443;SDS011;1736;52.068;6.968;2023-03-31T04:43:48;9.47;;;4.67;;
3443;SDS011;1736;52.068;6.968;2023-03-31T04:46:15;14.73;;;5.13;;
3443;SDS011;1736;52.068;6.968;2023-03-31T04:48:42;16.63;;;5.43;;
3443;SDS011;1736;52.068;6.968;2023-03-31T04:51:08;13.27;;;4.90;;
3443;SDS011;1736;52.068;6.968;2023-03-31T04:53:35;11.20;;;5.60;;
3443;SDS011;1736;52.068;6.968;2023-03-31T04:56:01;13.50;;;5.80;;
3443;SDS011;1736;52.068;6.968;2023-03-31T04:58:28;20.00;;;6.40;;
3443;SDS011;1736;52.068;6.968;2023-03-31T05:00:56;10.33;;;5.60;;
3443;SDS011;1736;52.068;6.968;2023-03-31T05:03:23;16.47;;;4.93;;
3443;SDS011;1736;52.068;6.968;2023-03-31T05:05:50;12.10;;;5.27;;
3443;SDS011;1736;52.068;6.968;2023-03-31T05:08:16;11.00;;;6.00;;
3443;SDS011;1736;52.068;6.968;2023-03-31T05:10:43;13.77;;;4.53;;
3443;SDS011;1736;52.068;6.968;2023-03-31T05:13:09;19.67;;;5.77;;
3443;SDS011;1736;52.068;6.968;2023-03-31T05:15:36;13.20;;;5.57;;
3443;SDS011;1736;52.068;6.968;2023-03-31T05:18:04;22.30;;;6.23;;
3443;SDS011;1736;52.068;6.968;2023-03-31T05:20:31;16.30;;;6.53;;
3443;SDS011;1736;52.068;6.968;2023-03-31T05:22:58;14.47;;;5.33;;
3443;SDS011;1736;52.068;6.968;2023-03-31T05:25:25;16.60;;;4.97;;
3443;SDS011;1736;52.068;6.968;2023-03-31T05:27:56;17.80;;;5.73;;
3443;SDS011;1736;52.068;6.968;2023-03-31T05:30:23;16.30;;;5.53;;
3443;SDS011;1736;52.068;6.968;2023-03-31T05:32:50;15.70;;;6.30;;
3443;SDS011;1736;52.068;6.968;2023-03-31T05:35:18;7.23;;;5.10;;
3443;SDS011;1736;52.068;6.968;2023-03-31T05:37:44;17.37;;;6.00;;
3443;SDS011;1736;52.068;6.968;2023-03-31T05:40:11;17.07;;;5.70;;
3443;SDS011;1736;52.068;6.968;2023-03-31T05:42:37;15.70;;;5.87;;
3443;SDS011;1736;52.068;6.968;2023-03-31T05:45:06;17.07;;;6.93;;
3443;SDS011;1736;52.068;6.968;2023-03-31T05:47:33;21.90;;;6.50;;
3443;SDS011;1736;52.068;6.968;2023-03-31T05:50:00;16.00;;;7.07;;
3443;SDS011;1736;52.068;6.968;2023-03-31T05:52:32;16.73;;;7.83;;
3443;SDS011;1736;52.068;6.968;2023-03-31T05:54:59;17.83;;;7.07;;
3443;SDS011;1736;52.068;6.968;2023-03-31T05:57:25;19.77;;;6.03;;
3443;SDS011;1736;52.068;6.968;2023-03-31T05:59:52;23.17;;;6.87;;
3443;SDS011;1736;52.068;6.968;2023-03-31T06:02:18;15.27;;;6.30;;
3443;SDS011;1736;52.068;6.968;2023-03-31T06:04:45;13.37;;;6.97;;
3443;SDS011;1736;52.068;6.968;2023-03-31T06:07:12;15.70;;;6.87;;
3443;SDS011;1736;52.068;6.968;2023-03-31T06:09:40;12.10;;;6.40;;
3443;SDS011;1736;52.068;6.968;2023-03-31T06:12:06;16.43;;;6.10;;
3443;SDS011;1736;52.068;6.968;2023-03-31T06:14:33;12.60;;;6.60;;
3443;SDS011;1736;52.068;6.968;2023-03-31T06:16:59;12.00;;;5.03;;
3443;SDS011;1736;52.068;6.968;2023-03-31T06:19:26;16.90;;;5.30;;
3443;SDS011;1736;52.068;6.968;2023-03-31T06:21:52;23.83;;;6.70;;
3443;SDS011;1736;52.068;6.968;2023-03-31T06:24:19;11.10;;;4.57;;
3443;SDS011;1736;52.068;6.968;2023-03-31T06:26:48;15.97;;;6.10;;
3443;SDS011;1736;52.068;6.968;2023-03-31T06:29:14;12.20;;;5.93;;
3443;SDS011;1736;52.068;6.968;2023-03-31T06:31:41;12.47;;;5.90;;
3443;SDS011;1736;52.068;6.968;2023-03-31T06:34:07;9.87;;;4.40;;
3443;SDS011;1736;52.068;6.968;2023-03-31T06:36:34;13.60;;;5.07;;
3443;SDS011;1736;52.068;6.968;2023-03-31T06:39:00;8.90;;;5.00;;
3443;SDS011;1736;52.068;6.968;2023-03-31T06:41:27;9.30;;;4.37;;
3443;SDS011;1736;52.068;6.968;2023-03-31T06:43:55;6.37;;;4.13;;
3443;SDS011;1736;52.068;6.968;2023-03-31T06:46:21;11.53;;;3.87;;
3443;SDS011;1736;52.068;6.968;2023-03-31T06:48:48;7.70;;;4.20;;
3443;SDS011;1736;52.068;6.968;2023-03-31T06:51:14;9.63;;;4.40;;
3443;SDS011;1736;52.068;6.968;2023-03-31T06:53:41;7.63;;;3.03;;
3443;SDS011;1736;52.068;6.968;2023-03-31T06:56:08;7.40;;;3.77;;
3443;SDS011;1736;52.068;6.968;2023-03-31T06:58:34;11.60;;;3.20;;
3443;SDS011;1736;52.068;6.968;2023-03-31T07:01:02;10.03;;;3.20;;
3443;SDS011;1736;52.068;6.968;2023-03-31T07:03:30;7.80;;;3.27;;
3443;SDS011;1736;52.068;6.968;2023-03-31T07:05:58;7.57;;;4.40;;
3443;SDS011;1736;52.068;6.968;2023-03-31T07:08:25;3.07;;;2.67;;
3443;SDS011;1736;52.068;6.968;2023-03-31T07:10:53;10.67;;;2.80;;
3443;SDS011;1736;52.068;6.968;2023-03-31T07:13:21;8.10;;;3.13;;
3443;SDS011;1736;52.068;6.968;2023-03-31T07:15:48;5.77;;;3.27;;
3443;SDS011;1736;52.068;6.968;2023-03-31T07:18:16;4.60;;;3.20;;
3443;SDS011;1736;52.068;6.968;2023-03-31T07:20:46;8.43;;;3.30;;
3443;SDS011;1736;52.068;6.968;2023-03-31T07:23:13;9.33;;;3.20;;
3443;SDS011;1736;52.068;6.968;2023-03-31T07:25:40;4.60;;;2.70;;
3443;SDS011;1736;52.068;6.968;2023-03-31T07:28:06;4.53;;;2.80;;
3443;SDS011;1736;52.068;6.968;2023-03-31T07:30:33;7.10;;;2.80;;
3443;SDS011;1736;52.068;6.968;2023-03-31T07:33:00;6.03;;;2.90;;
3443;SDS011;1736;52.068;6.968;2023-03-31T07:35:28;6.53;;;2.97;;
3443;SDS011;1736;52.068;6.968;2023-03-31T07:37:54;7.77;;;3.10;;
3443;SDS011;1736;52.068;6.968;2023-03-31T07:40:22;4.93;;;2.17;;
3443;SDS011;1736;52.068;6.968;2023-03-31T07:42:50;3.23;;;2.47;;
3443;SDS011;1736;52.068;6.968;2023-03-31T07:45:17;7.43;;;2.80;;
3443;SDS011;1736;52.068;6.968;2023-03-31T07:47:45;4.20;;;2.90;;
3443;SDS011;1736;52.068;6.968;2023-03-31T07:50:12;9.10;;;2.77;;
3443;SDS011;1736;52.068;6.968;2023-03-31T07:52:41;7.67;;;3.00;;
3443;SDS011;1736;52.068;6.968;2023-03-31T07:55:09;5.43;;;2.47;;
3443;SDS011;1736;52.068;6.968;2023-03-31T07:57:36;5.77;;;2.90;;
3443;SDS011;1736;52.068;6.968;2023-03-31T08:00:04;7.17;;;3.07;;
3443;SDS011;1736;52.068;6.968;2023-03-31T08:02:34;5.47;;;2.50;;
3443;SDS011;1736;52.068;6.968;2023-03-31T08:05:01;2.77;;;2.57;;
3443;SDS011;1736;52.068;6.968;2023-03-31T08:07:28;5.13;;;3.07;;
3443;SDS011;1736;52.068;6.968;2023-03-31T08:09:56;4.27;;;2.40;;
3443;SDS011;1736;52.068;6.968;2023-03-31T08:12:23;6.07;;;2.67;;
3443;SDS011;1736;52.068;6.968;2023-03-31T08:14:49;3.67;;;2.67;;
3443;SDS011;1736;52.068;6.968;2023-03-31T08:17:16;5.43;;;2.93;;
3443;SDS011;1736;52.068;6.968;2023-03-31T08:19:42;10.70;;;2.63;;
3443;SDS011;1736;52.068;6.968;2023-03-31T08:22:09;7.17;;;2.60;;
3443;SDS011;1736;52.068;6.968;2023-03-31T08:24:35;3.33;;;2.63;;
3443;SDS011;1736;52.068;6.968;2023-03-31T08:27:03;7.10;;;2.70;;
3443;SDS011;1736;52.068;6.968;2023-03-31T08:29:30;2.37;;;1.80;;
3443;SDS011;1736;52.068;6.968;2023-03-31T08:31:56;4.57;;;2.20;;
3443;SDS011;1736;52.068;6.968;2023-03-31T08:34:23;4.30;;;1.90;;
3443;SDS011;1736;52.068;6.968;2023-03-31T08:36:51;4.47;;;1.80;;
3443;SDS011;1736;52.068;6.968;2023-03-31T08:39:17;4.20;;;1.80;;
3443;SDS011;1736;52.068;6.968;2023-03-31T08:41:46;3.23;;;1.50;;
3443;SDS011;1736;52.068;6.968;2023-03-31T08:44:21;4.40;;;1.77;;
3443;SDS011;1736;52.068;6.968;2023-03-31T08:46:54;2.77;;;1.70;;
3443;SDS011;1736;52.068;6.968;2023-03-31T08:49:24;2.93;;;1.40;;
3443;SDS011;1736;52.068;6.968;2023-03-31T08:51:54;2.83;;;1.40;;
3443;SDS011;1736;52.068;6.968;2023-03-31T08:54:25;3.17;;;1.37;;
3443;SDS011;1736;52.068;6.968;2023-03-31T08:56:58;1.40;;;1.30;;
3443;SDS011;1736;52.068;6.968;2023-03-31T08:59:28;2.20;;;1.87;;
3443;SDS011;1736;52.068;6.968;2023-03-31T09:02:01;8.93;;;2.87;;
3443;SDS011;1736;52.068;6.968;2023-03-31T09:07:37;8.83;;;2.67;;
3443;SDS011;1736;52.068;6.968;2023-03-31T09:10:17;11.63;;;3.10;;
3443;SDS011;1736;52.068;6.968;2023-03-31T09:12:54;4.10;;;2.23;;
3443;SDS011;1736;52.068;6.968;2023-03-31T09:15:31;3.63;;;1.70;;
3443;SDS011;1736;52.068;6.968;2023-03-31T09:18:02;6.10;;;1.57;;
3443;SDS011;1736;52.068;6.968;2023-03-31T09:20:37;1.77;;;1.50;;
3443;SDS011;1736;52.068;6.968;2023-03-31T09:23:07;1.70;;;1.20;;
3443;SDS011;1736;52.068;6.968;2023-03-31T09:25:48;3.30;;;1.80;;
3443;SDS011;1736;52.068;6.968;2023-03-31T09:28:17;3.70;;;2.10;;
3443;SDS011;1736;52.068;6.968;2023-03-31T09:30:47;2.30;;;1.90;;
3443;SDS011;1736;52.068;6.968;2023-03-31T09:33:16;2.30;;;2.10;;
3443;SDS011;1736;52.068;6.968;2023-03-31T09:35:44;2.60;;;2.40;;
3443;SDS011;1736;52.068;6.968;2023-03-31T09:38:11;4.87;;;2.33;;
3443;SDS011;1736;52.068;6.968;2023-03-31T09:40:39;5.80;;;3.33;;
3443;SDS011;1736;52.068;6.968;2023-03-31T09:43:07;5.80;;;3.40;;
3443;SDS011;1736;52.068;6.968;2023-03-31T09:45:41;6.90;;;3.33;;
3443;SDS011;1736;52.068;6.968;2023-03-31T09:48:11;10.67;;;3.50;;
3443;SDS011;1736;52.068;6.968;2023-03-31T09:50:42;10.53;;;4.80;;
3443;SDS011;1736;52.068;6.968;2023-03-31T09:53:13;6.83;;;3.40;;
3443;SDS011;1736;52.068;6.968;2023-03-31T09:55:44;7.43;;;4.13;;
3443;SDS011;1736;52.068;6.968;2023-03-31T09:58:15;9.73;;;3.50;;
3443;SDS011;1736;52.068;6.968;2023-03-31T10:00:42;12.00;;;4.40;;
3443;SDS011;1736;52.068;6.968;2023-03-31T10:03:23;5.37;;;3.67;;
3443;SDS011;1736;52.068;6.968;2023-03-31T10:05:52;6.00;;;3.30;;
3443;SDS011;1736;52.068;6.968;2023-03-31T10:08:23;8.83;;;3.10;;
3443;SDS011;1736;52.068;6.968;2023-03-31T10:10:53;7.33;;;3.90;;
3443;SDS011;1736;52.068;6.968;2023-03-31T10:13:22;7.33;;;3.40;;
3443;SDS011;1736;52.068;6.968;2023-03-31T10:15:54;5.17;;;3.17;;
3443;SDS011;1736;52.068;6.968;2023-03-31T10:18:31;9.30;;;3.23;;
3443;SDS011;1736;52.068;6.968;2023-03-31T10:21:00;5.10;;;2.87;;
3443;SDS011;1736;52.068;6.968;2023-03-31T10:23:30;8.03;;;3.00;;
3443;SDS011;1736;52.068;6.968;2023-03-31T10:25:57;12.63;;;3.00;;
3443;SDS011;1736;52.068;6.968;2023-03-31T10:28:25;3.30;;;2.40;;
3443;SDS011;1736;52.068;6.968;2023-03-31T10:30:56;7.40;;;3.30;;
3443;SDS011;1736;52.068;6.968;2023-03-31T10:33:26;7.73;;;2.70;;
3443;SDS011;1736;52.068;6.968;2023-03-31T10:35:56;7.97;;;2.77;;
3443;SDS011;1736;52.068;6.968;2023-03-31T10:38:25;12.13;;;2.83;;
3443;SDS011;1736;52.068;6.968;2023-03-31T10:40:54;10.47;;;2.80;;
3443;SDS011;1736;52.068;6.968;2023-03-31T10:43:24;5.97;;;3.10;;
3443;SDS011;1736;52.068;6.968;2023-03-31T10:45:52;10.57;;;2.67;;
3443;SDS011;1736;52.068;6.968;2023-03-31T10:48:22;5.07;;;2.60;;
3443;SDS011;1736;52.068;6.968;2023-03-31T10:50:51;4.93;;;2.40;;
3443;SDS011;1736;52.068;6.968;2023-03-31T10:53:19;7.17;;;2.87;;
3443;SDS011;1736;52.068;6.968;2023-03-31T10:55:52;8.37;;;2.80;;
3443;SDS011;1736;52.068;6.968;2023-03-31T10:58:32;10.90;;;2.60;;
3443;SDS011;1736;52.068;6.968;2023-03-31T11:01:11;9.77;;;2.80;;
3443;SDS011;1736;52.068;6.968;2023-03-31T11:04:01;7.07;;;2.67;;
3443;SDS011;1736;52.068;6.968;2023-03-31T11:06:43;10.40;;;3.13;;
3443;SDS011;1736;52.068;6.968;2023-03-31T11:09:22;9.17;;;2.93;;
3443;SDS011;1736;52.068;6.968;2023-03-31T11:12:02;7.90;;;2.60;;
3443;SDS011;1736;52.068;6.968;2023-03-31T11:14:38;8.13;;;2.50;;
3443;SDS011;1736;52.068;6.968;2023-03-31T11:17:16;10.53;;;2.77;;
3443;SDS011;1736;52.068;6.968;2023-03-31T11:19:52;8.90;;;2.37;;
3443;SDS011;1736;52.068;6.968;2023-03-31T11:22:33;7.63;;;2.77;;
3443;SDS011;1736;52.068;6.968;2023-03-31T11:25:22;6.90;;;2.20;;
3443;SDS011;1736;52.068;6.968;2023-03-31T11:31:14;7.20;;;2.90;;
3443;SDS011;1736;52.068;6.968;2023-03-31T11:34:05;11.27;;;3.77;;
3443;SDS011;1736;52.068;6.968;2023-03-31T11:37:07;8.87;;;2.60;;
3443;SDS011;1736;52.068;6.968;2023-03-31T11:39:46;10.00;;;2.57;;
3443;SDS011;1736;52.068;6.968;2023-03-31T11:42:24;9.00;;;2.60;;
3443;SDS011;1736;52.068;6.968;2023-03-31T11:44:53;12.17;;;2.57;;
3443;SDS011;1736;52.068;6.968;2023-03-31T11:47:25;7.83;;;2.20;;
3443;SDS011;1736;52.068;6.968;2023-03-31T11:49:58;8.50;;;2.73;;
3443;SDS011;1736;52.068;6.968;2023-03-31T11:52:28;8.53;;;2.50;;
3443;SDS011;1736;52.068;6.968;2023-03-31T11:54:58;6.00;;;2.10;;
3443;SDS011;1736;52.068;6.968;2023-03-31T11:57:30;6.13;;;2.50;;
3443;SDS011;1736;52.068;6.968;2023-03-31T12:00:02;8.63;;;2.47;;
3443;SDS011;1736;52.068;6.968;2023-03-31T12:02:38;10.13;;;2.53;;
3443;SDS011;1736;52.068;6.968;2023-03-31T12:05:09;7.67;;;2.60;;
3443;SDS011;1736;52.068;6.968;2023-03-31T12:07:40;7.23;;;2.80;;
3443;SDS011;1736;52.068;6.968;2023-03-31T12:10:14;9.80;;;2.83;;
3443;SDS011;1736;52.068;6.968;2023-03-31T12:12:48;8.43;;;2.60;;
3443;SDS011;1736;52.068;6.968;2023-03-31T12:15:21;7.37;;;2.40;;
3443;SDS011;1736;52.068;6.968;2023-03-31T12:17:53;9.13;;;3.50;;
3443;SDS011;1736;52.068;6.968;2023-03-31T12:20:27;11.00;;;2.57;;
3443;SDS011;1736;52.068;6.968;2023-03-31T12:22:57;12.27;;;2.57;;
3443;SDS011;1736;52.068;6.968;2023-03-31T12:25:28;6.03;;;2.50;;
3443;SDS011;1736;52.068;6.968;2023-03-31T12:28:08;8.90;;;2.83;;
3443;SDS011;1736;52.068;6.968;2023-03-31T12:30:37;3.17;;;2.20;;
3443;SDS011;1736;52.068;6.968;2023-03-31T12:33:10;7.17;;;2.83;;
3443;SDS011;1736;52.068;6.968;2023-03-31T12:35:43;5.53;;;1.70;;
3443;SDS011;1736;52.068;6.968;2023-03-31T12:38:24;4.73;;;1.67;;
3443;SDS011;1736;52.068;6.968;2023-03-31T12:41:03;8.67;;;2.30;;
3443;SDS011;1736;52.068;6.968;2023-03-31T12:46:51;3.77;;;1.57;;
3443;SDS011;1736;52.068;6.968;2023-03-31T12:49:31;7.17;;;1.70;;
3443;SDS011;1736;52.068;6.968;2023-03-31T12:52:11;4.87;;;2.20;;
3443;SDS011;1736;52.068;6.968;2023-03-31T12:57:49;6.60;;;1.87;;
3443;SDS011;1736;52.068;6.968;2023-03-31T13:00:21;6.10;;;2.10;;
3443;SDS011;1736;52.068;6.968;2023-03-31T13:02:50;5.20;;;1.93;;
3443;SDS011;1736;52.068;6.968;2023-03-31T13:05:46;3.33;;;1.93;;
3443;SDS011;1736;52.068;6.968;2023-03-31T13:11:19;6.00;;;1.80;;
3443;SDS011;1736;52.068;6.968;2023-03-31T13:13:51;4.73;;;2.00;;
3443;SDS011;1736;52.068;6.968;2023-03-31T13:16:24;6.07;;;2.13;;
3443;SDS011;1736;52.068;6.968;2023-03-31T13:18:51;4.73;;;1.90;;
3443;SDS011;1736;52.068;6.968;2023-03-31T13:21:21;5.27;;;2.23;;
3443;SDS011;1736;52.068;6.968;2023-03-31T13:23:48;7.73;;;2.53;;
3443;SDS011;1736;52.068;6.968;2023-03-31T13:26:35;8.00;;;2.50;;
3443;SDS011;1736;52.068;6.968;2023-03-31T13:29:10;7.40;;;2.20;;
3443;SDS011;1736;52.068;6.968;2023-03-31T13:34:52;5.67;;;1.70;;
3443;SDS011;1736;52.068;6.968;2023-03-31T13:37:33;5.47;;;2.10;;
3443;SDS011;1736;52.068;6.968;2023-03-31T13:43:29;8.23;;;2.20;;
3443;SDS011;1736;52.068;6.968;2023-03-31T13:46:18;7.20;;;1.90;;
3443;SDS011;1736;52.068;6.968;2023-03-31T13:49:25;3.73;;;1.97;;
3443;SDS011;1736;52.068;6.968;2023-03-31T13:52:11;7.23;;;1.97;;
3443;SDS011;1736;52.068;6.968;2023-03-31T13:54:47;4.97;;;1.77;;
3443;SDS011;1736;52.068;6.968;2023-03-31T13:57:31;6.50;;;2.37;;
3443;SDS011;1736;52.068;6.968;2023-03-31T14:00:17;6.50;;;3.03;;
3443;SDS011;1736;52.068;6.968;2023-03-31T14:03:05;6.43;;;1.70;;
3443;SDS011;1736;52.068;6.968;2023-03-31T14:05:44;6.10;;;2.00;;
3443;SDS011;1736;52.068;6.968;2023-03-31T14:08:16;5.63;;;2.27;;
3443;SDS011;1736;52.068;6.968;2023-03-31T14:10:51;5.17;;;2.17;;
3443;SDS011;1736;52.068;6.968;2023-03-31T14:13:18;12.73;;;1.90;;
3443;SDS011;1736;52.068;6.968;2023-03-31T14:15:50;5.50;;;2.30;;
3443;SDS011;1736;52.068;6.968;2023-03-31T14:31:49;3.23;;;1.77;;
3443;SDS011;1736;52.068;6.968;2023-03-31T14:34:28;6.30;;;2.00;;
3443;SDS011;1736;52.068;6.968;2023-03-31T14:37:08;5.47;;;1.97;;
3443;SDS011;1736;52.068;6.968;2023-03-31T14:39:39;5.63;;;1.73;;
3443;SDS011;1736;52.068;6.968;2023-03-31T14:42:09;4.80;;;2.03;;
3443;SDS011;1736;52.068;6.968;2023-03-31T14:44:38;5.00;;;2.13;;
3443;SDS011;1736;52.068;6.968;2023-03-31T14:47:11;3.13;;;1.50;;
3443;SDS011;1736;52.068;6.968;2023-03-31T14:49:39;3.80;;;1.70;;
3443;SDS011;1736;52.068;6.968;2023-03-31T14:52:11;2.93;;;2.03;;
3443;SDS011;1736;52.068;6.968;2023-03-31T14:54:40;7.43;;;2.20;;
3443;SDS011;1736;52.068;6.968;2023-03-31T14:57:10;4.80;;;1.70;;
3443;SDS011;1736;52.068;6.968;2023-03-31T14:59:41;9.33;;;2.63;;
3443;SDS011;1736;52.068;6.968;2023-03-31T15:02:11;7.10;;;2.63;;
3443;SDS011;1736;52.068;6.968;2023-03-31T15:04:42;6.37;;;1.73;;
3443;SDS011;1736;52.068;6.968;2023-03-31T15:07:12;7.67;;;2.40;;
3443;SDS011;1736;52.068;6.968;2023-03-31T15:09:40;7.73;;;2.20;;
3443;SDS011;1736;52.068;6.968;2023-03-31T15:12:14;9.07;;;2.17;;
3443;SDS011;1736;52.068;6.968;2023-03-31T15:14:42;8.80;;;2.30;;
3443;SDS011;1736;52.068;6.968;2023-03-31T15:17:17;3.53;;;1.97;;
3443;SDS011;1736;52.068;6.968;2023-03-31T15:19:50;5.60;;;2.40;;
3443;SDS011;1736;52.068;6.968;2023-03-31T15:22:19;8.17;;;2.50;;
3443;SDS011;1736;52.068;6.968;2023-03-31T15:24:49;3.93;;;1.83;;
3443;SDS011;1736;52.068;6.968;2023-03-31T15:27:17;5.00;;;1.93;;
3443;SDS011;1736;52.068;6.968;2023-03-31T15:29:56;2.37;;;1.57;;
3443;SDS011;1736;52.068;6.968;2023-03-31T15:32:27;3.67;;;1.70;;
3443;SDS011;1736;52.068;6.968;2023-03-31T15:34:56;7.00;;;2.03;;
3443;SDS011;1736;52.068;6.968;2023-03-31T15:37:24;6.37;;;1.77;;
3443;SDS011;1736;52.068;6.968;2023-03-31T15:39:55;5.27;;;1.70;;
3443;SDS011;1736;52.068;6.968;2023-03-31T15:42:25;2.30;;;1.30;;
3443;SDS011;1736;52.068;6.968;2023-03-31T15:44:53;3.10;;;1.70;;
3443;SDS011;1736;52.068;6.968;2023-03-31T15:47:21;5.57;;;1.70;;
3443;SDS011;1736;52.068;6.968;2023-03-31T15:49:52;5.23;;;1.33;;
3443;SDS011;1736;52.068;6.968;2023-03-31T15:52:22;4.90;;;1.70;;
3443;SDS011;1736;52.068;6.968;2023-03-31T15:54:53;4.57;;;1.50;;
3443;SDS011;1736;52.068;6.968;2023-03-31T15:57:20;4.10;;;1.67;;
3443;SDS011;1736;52.068;6.968;2023-03-31T15:59:56;6.10;;;1.73;;
3443;SDS011;1736;52.068;6.968;2023-03-31T16:02:24;5.50;;;1.60;;
3443;SDS011;1736;52.068;6.968;2023-03-31T16:04:55;1.50;;;1.40;;
3443;SDS011;1736;52.068;6.968;2023-03-31T16:07:23;3.83;;;1.20;;
3443;SDS011;1736;52.068;6.968;2023-03-31T16:09:52;2.63;;;1.33;;
3443;SDS011;1736;52.068;6.968;2023-03-31T16:12:23;2.10;;;1.57;;
3443;SDS011;1736;52.068;6.968;2023-03-31T16:14:55;2.63;;;1.23;;
3443;SDS011;1736;52.068;6.968;2023-03-31T16:17:28;4.43;;;1.63;;
3443;SDS011;1736;52.068;6.968;2023-03-31T16:19:59;3.73;;;1.33;;
3443;SDS011;1736;52.068;6.968;2023-03-31T16:22:33;7.03;;;1.97;;
3443;SDS011;1736;52.068;6.968;2023-03-31T16:25:07;5.37;;;1.43;;
3443;SDS011;1736;52.068;6.968;2023-03-31T16:27:36;3.00;;;1.30;;
3443;SDS011;1736;52.068;6.968;2023-03-31T16:30:07;3.80;;;1.57;;